sensor_id;sensor_type;location;lat;lon;timestamp;temperature;humidity
32296;DHT22;18781;51.550;5.418;2022-07-23T00:01:22;20.80;59.40
32296;DHT22;18781;51.550;5.418;2022-07-23T00:03:48;20.80;59.50
32296;DHT22;18781;51.550;5.418;2022-07-23T00:06:14;20.80;59.50
32296;DHT22;18781;51.550;5.418;2022-07-23T00:08:39;20.70;59.40
32296;DHT22;18781;51.550;5.418;2022-07-23T00:11:05;20.70;59.60
32296;DHT22;18781;51.550;5.418;2022-07-23T00:13:31;20.70;59.80
32296;DHT22;18781;51.550;5.418;2022-07-23T00:15:56;20.70;59.80
32296;DHT22;18781;51.550;5.418;2022-07-23T00:18:22;20.60;59.80
32296;DHT22;18781;51.550;5.418;2022-07-23T00:20:48;20.60;60.00
32296;DHT22;18781;51.550;5.418;2022-07-23T00:23:14;20.50;60.00
32296;DHT22;18781;51.550;5.418;2022-07-23T00:25:39;20.50;60.10
32296;DHT22;18781;51.550;5.418;2022-07-23T00:28:05;20.50;60.10
32296;DHT22;18781;51.550;5.418;2022-07-23T00:30:31;20.40;60.00
32296;DHT22;18781;51.550;5.418;2022-07-23T00:33:00;20.40;60.00
32296;DHT22;18781;51.550;5.418;2022-07-23T00:35:29;20.40;60.40
32296;DHT22;18781;51.550;5.418;2022-07-23T00:37:55;20.30;60.20
32296;DHT22;18781;51.550;5.418;2022-07-23T00:40:22;20.30;60.30
32296;DHT22;18781;51.550;5.418;2022-07-23T00:42:48;20.30;60.50
32296;DHT22;18781;51.550;5.418;2022-07-23T00:45:13;20.30;60.50
32296;DHT22;18781;51.550;5.418;2022-07-23T00:47:39;20.20;60.40
32296;DHT22;18781;51.550;5.418;2022-07-23T00:50:06;20.20;60.60
32296;DHT22;18781;51.550;5.418;2022-07-23T00:52:33;20.20;60.70
32296;DHT22;18781;51.550;5.418;2022-07-23T00:54:59;20.10;60.70
32296;DHT22;18781;51.550;5.418;2022-07-23T00:57:25;20.10;60.90
32296;DHT22;18781;51.550;5.418;2022-07-23T00:59:50;20.10;60.80
32296;DHT22;18781;51.550;5.418;2022-07-23T01:02:16;20.00;60.70
32296;DHT22;18781;51.550;5.418;2022-07-23T01:04:42;20.00;60.90
32296;DHT22;18781;51.550;5.418;2022-07-23T01:07:07;20.00;60.90
32296;DHT22;18781;51.550;5.418;2022-07-23T01:09:33;20.00;61.00
32296;DHT22;18781;51.550;5.418;2022-07-23T01:11:59;19.90;60.90
32296;DHT22;18781;51.550;5.418;2022-07-23T01:14:25;19.90;61.10
32296;DHT22;18781;51.550;5.418;2022-07-23T01:16:52;19.90;61.00
32296;DHT22;18781;51.550;5.418;2022-07-23T01:19:17;19.80;61.00
32296;DHT22;18781;51.550;5.418;2022-07-23T01:21:45;19.80;61.10
32296;DHT22;18781;51.550;5.418;2022-07-23T01:24:12;19.80;61.20
32296;DHT22;18781;51.550;5.418;2022-07-23T01:26:40;19.80;61.30
32296;DHT22;18781;51.550;5.418;2022-07-23T01:29:06;19.70;61.30
32296;DHT22;18781;51.550;5.418;2022-07-23T01:31:32;19.70;61.10
32296;DHT22;18781;51.550;5.418;2022-07-23T01:33:58;19.70;61.30
32296;DHT22;18781;51.550;5.418;2022-07-23T01:36:23;19.60;61.40
32296;DHT22;18781;51.550;5.418;2022-07-23T01:38:49;19.60;61.40
32296;DHT22;18781;51.550;5.418;2022-07-23T01:41:14;19.50;61.50
32296;DHT22;18781;51.550;5.418;2022-07-23T01:43:40;19.50;61.40
32296;DHT22;18781;51.550;5.418;2022-07-23T01:46:06;19.50;61.40
32296;DHT22;18781;51.550;5.418;2022-07-23T01:48:31;19.50;61.60
32296;DHT22;18781;51.550;5.418;2022-07-23T01:50:57;19.50;61.60
32296;DHT22;18781;51.550;5.418;2022-07-23T01:53:23;19.40;61.80
32296;DHT22;18781;51.550;5.418;2022-07-23T01:55:48;19.40;61.80
32296;DHT22;18781;51.550;5.418;2022-07-23T01:58:14;19.30;61.60
32296;DHT22;18781;51.550;5.418;2022-07-23T02:00:39;19.30;61.70
32296;DHT22;18781;51.550;5.418;2022-07-23T02:03:05;19.30;61.70
32296;DHT22;18781;51.550;5.418;2022-07-23T02:05:31;19.30;61.60
32296;DHT22;18781;51.550;5.418;2022-07-23T02:07:57;19.20;61.60
32296;DHT22;18781;51.550;5.418;2022-07-23T02:10:23;19.20;61.80
32296;DHT22;18781;51.550;5.418;2022-07-23T02:12:48;19.20;62.00
32296;DHT22;18781;51.550;5.418;2022-07-23T02:15:14;19.10;62.10
32296;DHT22;18781;51.550;5.418;2022-07-23T02:17:40;19.10;62.00
32296;DHT22;18781;51.550;5.418;2022-07-23T02:20:07;19.10;62.10
32296;DHT22;18781;51.550;5.418;2022-07-23T02:22:33;19.10;62.20
32296;DHT22;18781;51.550;5.418;2022-07-23T02:24:59;19.00;62.00
32296;DHT22;18781;51.550;5.418;2022-07-23T02:27:24;19.00;62.30
32296;DHT22;18781;51.550;5.418;2022-07-23T02:29:50;19.00;62.30
32296;DHT22;18781;51.550;5.418;2022-07-23T02:32:16;18.90;62.40
32296;DHT22;18781;51.550;5.418;2022-07-23T02:34:42;18.90;62.50
32296;DHT22;18781;51.550;5.418;2022-07-23T02:37:07;18.90;62.60
32296;DHT22;18781;51.550;5.418;2022-07-23T02:39:34;18.80;62.60
32296;DHT22;18781;51.550;5.418;2022-07-23T02:42:00;18.80;62.60
32296;DHT22;18781;51.550;5.418;2022-07-23T02:44:26;18.80;62.60
32296;DHT22;18781;51.550;5.418;2022-07-23T02:46:51;18.80;62.60
32296;DHT22;18781;51.550;5.418;2022-07-23T02:49:17;18.70;62.60
32296;DHT22;18781;51.550;5.418;2022-07-23T02:51:43;18.70;62.90
32296;DHT22;18781;51.550;5.418;2022-07-23T02:54:08;18.60;63.00
32296;DHT22;18781;51.550;5.418;2022-07-23T02:56:34;18.60;63.00
32296;DHT22;18781;51.550;5.418;2022-07-23T02:58:59;18.60;63.00
32296;DHT22;18781;51.550;5.418;2022-07-23T03:01:25;18.60;63.20
32296;DHT22;18781;51.550;5.418;2022-07-23T03:03:51;18.50;63.20
32296;DHT22;18781;51.550;5.418;2022-07-23T03:06:17;18.50;63.20
32296;DHT22;18781;51.550;5.418;2022-07-23T03:08:42;18.40;63.10
32296;DHT22;18781;51.550;5.418;2022-07-23T03:11:08;18.40;63.10
32296;DHT22;18781;51.550;5.418;2022-07-23T03:13:37;18.40;63.30
32296;DHT22;18781;51.550;5.418;2022-07-23T03:16:03;18.40;63.40
32296;DHT22;18781;51.550;5.418;2022-07-23T03:18:29;18.40;63.50
32296;DHT22;18781;51.550;5.418;2022-07-23T03:20:54;18.30;63.60
32296;DHT22;18781;51.550;5.418;2022-07-23T03:23:20;18.30;63.60
32296;DHT22;18781;51.550;5.418;2022-07-23T03:25:46;18.30;63.60
32296;DHT22;18781;51.550;5.418;2022-07-23T03:28:14;18.20;63.70
32296;DHT22;18781;51.550;5.418;2022-07-23T03:30:41;18.20;63.80
32296;DHT22;18781;51.550;5.418;2022-07-23T03:33:07;18.20;63.80
32296;DHT22;18781;51.550;5.418;2022-07-23T03:35:32;18.10;63.70
32296;DHT22;18781;51.550;5.418;2022-07-23T03:37:59;18.10;63.90
32296;DHT22;18781;51.550;5.418;2022-07-23T03:40:25;18.10;63.90
32296;DHT22;18781;51.550;5.418;2022-07-23T03:42:51;18.10;63.90
32296;DHT22;18781;51.550;5.418;2022-07-23T03:45:16;18.00;63.90
32296;DHT22;18781;51.550;5.418;2022-07-23T03:47:42;18.10;64.10
32296;DHT22;18781;51.550;5.418;2022-07-23T03:50:09;18.00;64.00
32296;DHT22;18781;51.550;5.418;2022-07-23T03:52:35;18.00;64.10
32296;DHT22;18781;51.550;5.418;2022-07-23T03:55:02;18.00;64.10
32296;DHT22;18781;51.550;5.418;2022-07-23T03:57:27;18.00;64.20
32296;DHT22;18781;51.550;5.418;2022-07-23T03:59:53;18.00;64.10
32296;DHT22;18781;51.550;5.418;2022-07-23T04:02:19;18.00;64.10
32296;DHT22;18781;51.550;5.418;2022-07-23T04:04:44;18.00;64.20
32296;DHT22;18781;51.550;5.418;2022-07-23T04:07:10;17.90;64.30
32296;DHT22;18781;51.550;5.418;2022-07-23T04:09:35;17.90;64.30
32296;DHT22;18781;51.550;5.418;2022-07-23T04:12:01;17.90;64.30
32296;DHT22;18781;51.550;5.418;2022-07-23T04:14:26;17.90;64.40
32296;DHT22;18781;51.550;5.418;2022-07-23T04:16:52;17.90;64.30
32296;DHT22;18781;51.550;5.418;2022-07-23T04:19:18;17.90;64.20
32296;DHT22;18781;51.550;5.418;2022-07-23T04:21:43;17.90;64.40
32296;DHT22;18781;51.550;5.418;2022-07-23T04:24:09;17.80;64.50
32296;DHT22;18781;51.550;5.418;2022-07-23T04:26:34;17.80;64.70
32296;DHT22;18781;51.550;5.418;2022-07-23T04:29:00;17.80;64.80
32296;DHT22;18781;51.550;5.418;2022-07-23T04:31:25;17.80;64.80
32296;DHT22;18781;51.550;5.418;2022-07-23T04:33:51;17.80;65.00
32296;DHT22;18781;51.550;5.418;2022-07-23T04:36:16;17.80;65.00
32296;DHT22;18781;51.550;5.418;2022-07-23T04:38:42;17.80;65.20
32296;DHT22;18781;51.550;5.418;2022-07-23T04:41:08;17.80;65.30
32296;DHT22;18781;51.550;5.418;2022-07-23T04:43:33;17.80;65.40
32296;DHT22;18781;51.550;5.418;2022-07-23T04:45:59;17.90;65.40
32296;DHT22;18781;51.550;5.418;2022-07-23T04:48:24;17.90;65.40
32296;DHT22;18781;51.550;5.418;2022-07-23T04:50:50;17.90;65.40
32296;DHT22;18781;51.550;5.418;2022-07-23T04:53:15;17.90;65.10
32296;DHT22;18781;51.550;5.418;2022-07-23T04:55:41;17.90;65.20
32296;DHT22;18781;51.550;5.418;2022-07-23T04:58:07;17.90;65.30
32296;DHT22;18781;51.550;5.418;2022-07-23T05:00:32;17.90;65.40
32296;DHT22;18781;51.550;5.418;2022-07-23T05:02:58;18.00;65.50
32296;DHT22;18781;51.550;5.418;2022-07-23T05:05:24;18.00;65.70
32296;DHT22;18781;51.550;5.418;2022-07-23T05:07:49;18.00;65.80
32296;DHT22;18781;51.550;5.418;2022-07-23T05:10:15;18.00;65.90
32296;DHT22;18781;51.550;5.418;2022-07-23T05:12:40;18.00;65.90
32296;DHT22;18781;51.550;5.418;2022-07-23T05:15:06;18.00;65.90
32296;DHT22;18781;51.550;5.418;2022-07-23T05:17:32;18.00;66.20
32296;DHT22;18781;51.550;5.418;2022-07-23T05:19:57;18.00;66.20
32296;DHT22;18781;51.550;5.418;2022-07-23T05:22:23;18.10;66.40
32296;DHT22;18781;51.550;5.418;2022-07-23T05:24:48;18.10;66.50
32296;DHT22;18781;51.550;5.418;2022-07-23T05:27:14;18.10;66.70
32296;DHT22;18781;51.550;5.418;2022-07-23T05:29:39;18.10;66.80
32296;DHT22;18781;51.550;5.418;2022-07-23T05:32:05;18.10;66.90
32296;DHT22;18781;51.550;5.418;2022-07-23T05:34:31;18.10;67.00
32296;DHT22;18781;51.550;5.418;2022-07-23T05:36:56;18.20;67.30
32296;DHT22;18781;51.550;5.418;2022-07-23T05:39:22;18.20;67.20
32296;DHT22;18781;51.550;5.418;2022-07-23T05:41:47;18.30;67.40
32296;DHT22;18781;51.550;5.418;2022-07-23T05:44:13;18.30;67.40
32296;DHT22;18781;51.550;5.418;2022-07-23T05:46:39;18.30;67.50
32296;DHT22;18781;51.550;5.418;2022-07-23T05:49:04;18.40;67.60
32296;DHT22;18781;51.550;5.418;2022-07-23T05:51:30;18.50;67.60
32296;DHT22;18781;51.550;5.418;2022-07-23T05:53:55;18.50;67.70
32296;DHT22;18781;51.550;5.418;2022-07-23T05:56:21;18.60;67.60
32296;DHT22;18781;51.550;5.418;2022-07-23T05:58:47;18.70;67.70
32296;DHT22;18781;51.550;5.418;2022-07-23T06:01:13;18.70;67.70
32296;DHT22;18781;51.550;5.418;2022-07-23T06:03:38;18.80;67.60
32296;DHT22;18781;51.550;5.418;2022-07-23T06:06:04;18.90;67.70
32296;DHT22;18781;51.550;5.418;2022-07-23T06:08:30;18.90;67.60
32296;DHT22;18781;51.550;5.418;2022-07-23T06:10:56;19.00;67.70
32296;DHT22;18781;51.550;5.418;2022-07-23T06:13:22;19.00;67.70
32296;DHT22;18781;51.550;5.418;2022-07-23T06:15:47;19.10;67.70
32296;DHT22;18781;51.550;5.418;2022-07-23T06:18:13;19.10;67.50
32296;DHT22;18781;51.550;5.418;2022-07-23T06:20:40;19.20;67.70
32296;DHT22;18781;51.550;5.418;2022-07-23T06:23:05;19.30;67.50
32296;DHT22;18781;51.550;5.418;2022-07-23T06:25:31;19.30;67.40
32296;DHT22;18781;51.550;5.418;2022-07-23T06:27:57;19.40;67.30
32296;DHT22;18781;51.550;5.418;2022-07-23T06:30:22;19.40;67.20
32296;DHT22;18781;51.550;5.418;2022-07-23T06:32:48;19.50;67.10
32296;DHT22;18781;51.550;5.418;2022-07-23T06:35:14;19.50;67.10
32296;DHT22;18781;51.550;5.418;2022-07-23T06:37:41;19.60;66.80
32296;DHT22;18781;51.550;5.418;2022-07-23T06:40:06;19.60;66.80
32296;DHT22;18781;51.550;5.418;2022-07-23T06:42:34;19.60;66.70
32296;DHT22;18781;51.550;5.418;2022-07-23T06:45:03;19.60;66.50
32296;DHT22;18781;51.550;5.418;2022-07-23T06:47:29;19.70;66.20
32296;DHT22;18781;51.550;5.418;2022-07-23T06:49:54;19.80;66.00
32296;DHT22;18781;51.550;5.418;2022-07-23T06:52:20;19.80;65.90
32296;DHT22;18781;51.550;5.418;2022-07-23T06:54:46;19.90;65.90
32296;DHT22;18781;51.550;5.418;2022-07-23T06:57:11;19.90;66.00
32296;DHT22;18781;51.550;5.418;2022-07-23T06:59:37;20.00;65.90
32296;DHT22;18781;51.550;5.418;2022-07-23T07:02:06;20.00;65.70
32296;DHT22;18781;51.550;5.418;2022-07-23T07:04:31;20.10;65.30
32296;DHT22;18781;51.550;5.418;2022-07-23T07:06:57;20.10;65.40
32296;DHT22;18781;51.550;5.418;2022-07-23T07:09:23;20.20;64.80
32296;DHT22;18781;51.550;5.418;2022-07-23T07:11:49;20.20;65.00
32296;DHT22;18781;51.550;5.418;2022-07-23T07:14:14;20.30;64.90
32296;DHT22;18781;51.550;5.418;2022-07-23T07:16:40;20.30;64.70
32296;DHT22;18781;51.550;5.418;2022-07-23T07:19:06;20.40;64.70
32296;DHT22;18781;51.550;5.418;2022-07-23T07:21:31;20.50;64.80
32296;DHT22;18781;51.550;5.418;2022-07-23T07:23:57;20.50;64.70
32296;DHT22;18781;51.550;5.418;2022-07-23T07:26:22;20.60;64.60
32296;DHT22;18781;51.550;5.418;2022-07-23T07:28:48;20.70;64.40
32296;DHT22;18781;51.550;5.418;2022-07-23T07:31:14;20.70;64.20
32296;DHT22;18781;51.550;5.418;2022-07-23T07:33:39;20.80;64.00
32296;DHT22;18781;51.550;5.418;2022-07-23T07:36:05;20.90;63.90
32296;DHT22;18781;51.550;5.418;2022-07-23T07:38:31;21.00;63.70
32296;DHT22;18781;51.550;5.418;2022-07-23T07:40:56;21.00;63.10
32296;DHT22;18781;51.550;5.418;2022-07-23T07:43:22;21.10;62.90
32296;DHT22;18781;51.550;5.418;2022-07-23T07:45:47;21.10;62.80
32296;DHT22;18781;51.550;5.418;2022-07-23T07:48:13;21.20;62.80
32296;DHT22;18781;51.550;5.418;2022-07-23T07:50:38;21.30;62.50
32296;DHT22;18781;51.550;5.418;2022-07-23T07:53:04;21.30;61.70
32296;DHT22;18781;51.550;5.418;2022-07-23T07:55:30;21.40;61.70
32296;DHT22;18781;51.550;5.418;2022-07-23T07:57:56;21.40;61.90
32296;DHT22;18781;51.550;5.418;2022-07-23T08:00:22;21.50;60.90
32296;DHT22;18781;51.550;5.418;2022-07-23T08:02:49;21.60;61.40
32296;DHT22;18781;51.550;5.418;2022-07-23T08:05:19;21.60;61.10
32296;DHT22;18781;51.550;5.418;2022-07-23T08:07:46;21.70;60.20
32296;DHT22;18781;51.550;5.418;2022-07-23T08:10:11;21.80;60.20
32296;DHT22;18781;51.550;5.418;2022-07-23T08:12:48;21.80;59.80
32296;DHT22;18781;51.550;5.418;2022-07-23T08:15:16;21.90;59.70
32296;DHT22;18781;51.550;5.418;2022-07-23T08:17:43;21.90;60.10
32296;DHT22;18781;51.550;5.418;2022-07-23T08:20:10;22.00;60.20
32296;DHT22;18781;51.550;5.418;2022-07-23T08:25:08;22.20;59.50
32296;DHT22;18781;51.550;5.418;2022-07-23T08:27:34;22.20;59.00
32296;DHT22;18781;51.550;5.418;2022-07-23T08:30:00;22.30;59.40
32296;DHT22;18781;51.550;5.418;2022-07-23T08:32:25;22.40;58.40
32296;DHT22;18781;51.550;5.418;2022-07-23T08:34:51;22.40;58.90
32296;DHT22;18781;51.550;5.418;2022-07-23T08:37:16;22.50;58.70
32296;DHT22;18781;51.550;5.418;2022-07-23T08:39:42;22.50;58.60
32296;DHT22;18781;51.550;5.418;2022-07-23T08:42:08;22.60;59.20
32296;DHT22;18781;51.550;5.418;2022-07-23T08:44:35;22.70;59.00
32296;DHT22;18781;51.550;5.418;2022-07-23T08:47:01;22.70;58.40
32296;DHT22;18781;51.550;5.418;2022-07-23T08:49:28;22.80;58.90
32296;DHT22;18781;51.550;5.418;2022-07-23T08:51:55;22.90;57.30
32296;DHT22;18781;51.550;5.418;2022-07-23T08:54:22;23.00;57.10
32296;DHT22;18781;51.550;5.418;2022-07-23T08:56:48;23.00;57.20
32296;DHT22;18781;51.550;5.418;2022-07-23T08:59:14;23.10;57.60
32296;DHT22;18781;51.550;5.418;2022-07-23T09:01:39;23.10;59.00
32296;DHT22;18781;51.550;5.418;2022-07-23T09:04:05;23.30;57.30
32296;DHT22;18781;51.550;5.418;2022-07-23T09:06:31;23.30;57.20
32296;DHT22;18781;51.550;5.418;2022-07-23T09:08:56;23.40;57.70
32296;DHT22;18781;51.550;5.418;2022-07-23T09:11:22;23.50;56.70
32296;DHT22;18781;51.550;5.418;2022-07-23T09:13:52;23.60;57.40
32296;DHT22;18781;51.550;5.418;2022-07-23T09:16:29;23.60;55.30
32296;DHT22;18781;51.550;5.418;2022-07-23T09:19:00;23.70;57.30
32296;DHT22;18781;51.550;5.418;2022-07-23T09:21:31;23.80;57.00
32296;DHT22;18781;51.550;5.418;2022-07-23T09:24:02;23.80;55.80
32296;DHT22;18781;51.550;5.418;2022-07-23T09:26:30;23.90;55.30
32296;DHT22;18781;51.550;5.418;2022-07-23T09:36:58;24.20;55.10
32296;DHT22;18781;51.550;5.418;2022-07-23T09:39:32;24.20;53.90
32296;DHT22;18781;51.550;5.418;2022-07-23T09:42:14;24.30;53.50
32296;DHT22;18781;51.550;5.418;2022-07-23T09:44:42;24.40;53.80
32296;DHT22;18781;51.550;5.418;2022-07-23T09:47:07;24.40;54.10
32296;DHT22;18781;51.550;5.418;2022-07-23T09:49:33;24.40;54.00
32296;DHT22;18781;51.550;5.418;2022-07-23T09:52:00;24.50;54.20
32296;DHT22;18781;51.550;5.418;2022-07-23T09:54:32;24.60;54.60
32296;DHT22;18781;51.550;5.418;2022-07-23T09:57:07;24.70;54.30
32296;DHT22;18781;51.550;5.418;2022-07-23T09:59:36;24.80;54.30
32296;DHT22;18781;51.550;5.418;2022-07-23T10:02:04;24.90;52.70
32296;DHT22;18781;51.550;5.418;2022-07-23T10:04:31;24.90;53.20
32296;DHT22;18781;51.550;5.418;2022-07-23T10:07:02;25.00;52.50
32296;DHT22;18781;51.550;5.418;2022-07-23T10:09:31;25.00;52.90
32296;DHT22;18781;51.550;5.418;2022-07-23T10:11:59;25.10;52.60
32296;DHT22;18781;51.550;5.418;2022-07-23T10:14:39;25.10;52.00
32296;DHT22;18781;51.550;5.418;2022-07-23T10:17:06;25.20;52.70
32296;DHT22;18781;51.550;5.418;2022-07-23T10:19:32;25.30;53.10
32296;DHT22;18781;51.550;5.418;2022-07-23T10:22:04;25.30;51.90
32296;DHT22;18781;51.550;5.418;2022-07-23T10:28:07;25.40;51.30
32296;DHT22;18781;51.550;5.418;2022-07-23T10:31:25;25.50;50.60
32296;DHT22;18781;51.550;5.418;2022-07-23T10:37:01;25.50;49.80
32296;DHT22;18781;51.550;5.418;2022-07-23T10:39:34;25.60;50.60
32296;DHT22;18781;51.550;5.418;2022-07-23T10:42:17;25.60;50.70
32296;DHT22;18781;51.550;5.418;2022-07-23T10:44:48;25.70;49.80
32296;DHT22;18781;51.550;5.418;2022-07-23T10:47:30;25.70;50.40
32296;DHT22;18781;51.550;5.418;2022-07-23T10:50:28;25.80;50.70
32296;DHT22;18781;51.550;5.418;2022-07-23T10:58:04;26.10;50.90
32296;DHT22;18781;51.550;5.418;2022-07-23T11:00:31;26.20;50.70
32296;DHT22;18781;51.550;5.418;2022-07-23T11:03:05;26.30;49.80
32296;DHT22;18781;51.550;5.418;2022-07-23T11:05:50;26.40;49.40
32296;DHT22;18781;51.550;5.418;2022-07-23T11:08:19;26.50;48.70
32296;DHT22;18781;51.550;5.418;2022-07-23T11:10:48;26.60;49.40
32296;DHT22;18781;51.550;5.418;2022-07-23T11:13:28;26.60;49.80
32296;DHT22;18781;51.550;5.418;2022-07-23T11:24:06;27.00;49.80
32296;DHT22;18781;51.550;5.418;2022-07-23T11:26:45;27.20;48.40
32296;DHT22;18781;51.550;5.418;2022-07-23T11:32:07;27.30;49.90
32296;DHT22;18781;51.550;5.418;2022-07-23T11:34:41;27.30;47.10
32296;DHT22;18781;51.550;5.418;2022-07-23T11:37:10;27.30;47.30
32296;DHT22;18781;51.550;5.418;2022-07-23T11:39:36;27.30;47.20
32296;DHT22;18781;51.550;5.418;2022-07-23T11:42:05;27.40;47.70
32296;DHT22;18781;51.550;5.418;2022-07-23T11:44:39;27.40;48.10
32296;DHT22;18781;51.550;5.418;2022-07-23T11:47:07;27.50;46.70
32296;DHT22;18781;51.550;5.418;2022-07-23T11:49:33;27.50;47.30
32296;DHT22;18781;51.550;5.418;2022-07-23T11:52:13;27.60;47.90
32296;DHT22;18781;51.550;5.418;2022-07-23T11:54:56;27.70;47.00
32296;DHT22;18781;51.550;5.418;2022-07-23T11:57:28;27.70;46.60
32296;DHT22;18781;51.550;5.418;2022-07-23T12:00:15;27.80;46.90
32296;DHT22;18781;51.550;5.418;2022-07-23T12:02:46;27.90;46.70
32296;DHT22;18781;51.550;5.418;2022-07-23T12:05:20;28.00;45.30
32296;DHT22;18781;51.550;5.418;2022-07-23T12:07:48;28.00;44.80
32296;DHT22;18781;51.550;5.418;2022-07-23T12:10:19;28.00;45.60
32296;DHT22;18781;51.550;5.418;2022-07-23T12:13:03;28.00;46.00
32296;DHT22;18781;51.550;5.418;2022-07-23T12:15:32;28.00;46.50
32296;DHT22;18781;51.550;5.418;2022-07-23T12:18:00;28.00;45.40
32296;DHT22;18781;51.550;5.418;2022-07-23T12:20:32;28.10;46.10
32296;DHT22;18781;51.550;5.418;2022-07-23T12:23:03;28.10;45.20
32296;DHT22;18781;51.550;5.418;2022-07-23T12:25:32;28.20;45.70
32296;DHT22;18781;51.550;5.418;2022-07-23T12:30:38;28.20;46.00
32296;DHT22;18781;51.550;5.418;2022-07-23T12:33:05;28.30;45.00
32296;DHT22;18781;51.550;5.418;2022-07-23T12:38:04;28.40;43.70
32296;DHT22;18781;51.550;5.418;2022-07-23T12:40:33;28.40;45.00
32296;DHT22;18781;51.550;5.418;2022-07-23T12:43:07;28.40;43.60
32296;DHT22;18781;51.550;5.418;2022-07-23T12:45:53;28.40;43.90
32296;DHT22;18781;51.550;5.418;2022-07-23T12:48:21;28.40;44.80
32296;DHT22;18781;51.550;5.418;2022-07-23T12:55:50;28.50;43.80
32296;DHT22;18781;51.550;5.418;2022-07-23T12:58:20;28.50;43.70
32296;DHT22;18781;51.550;5.418;2022-07-23T13:01:01;28.50;44.10
32296;DHT22;18781;51.550;5.418;2022-07-23T13:03:39;28.60;44.40
32296;DHT22;18781;51.550;5.418;2022-07-23T13:06:10;28.50;43.20
32296;DHT22;18781;51.550;5.418;2022-07-23T13:08:38;28.50;44.60
32296;DHT22;18781;51.550;5.418;2022-07-23T13:11:05;28.50;44.00
32296;DHT22;18781;51.550;5.418;2022-07-23T13:13:33;28.50;43.20
32296;DHT22;18781;51.550;5.418;2022-07-23T13:15:59;28.60;43.90
32296;DHT22;18781;51.550;5.418;2022-07-23T13:18:26;28.60;44.30
32296;DHT22;18781;51.550;5.418;2022-07-23T13:20:52;28.60;44.90
32296;DHT22;18781;51.550;5.418;2022-07-23T13:23:18;28.60;44.90
32296;DHT22;18781;51.550;5.418;2022-07-23T13:25:44;28.70;43.50
32296;DHT22;18781;51.550;5.418;2022-07-23T13:28:11;28.70;43.40
32296;DHT22;18781;51.550;5.418;2022-07-23T13:30:36;28.70;43.70
32296;DHT22;18781;51.550;5.418;2022-07-23T13:33:03;28.80;44.30
32296;DHT22;18781;51.550;5.418;2022-07-23T13:35:29;28.80;42.90
32296;DHT22;18781;51.550;5.418;2022-07-23T13:37:55;28.90;43.40
32296;DHT22;18781;51.550;5.418;2022-07-23T13:40:21;28.90;42.50
32296;DHT22;18781;51.550;5.418;2022-07-23T13:42:47;28.90;42.00
32296;DHT22;18781;51.550;5.418;2022-07-23T13:45:12;28.90;42.70
32296;DHT22;18781;51.550;5.418;2022-07-23T13:47:38;28.90;43.50
32296;DHT22;18781;51.550;5.418;2022-07-23T13:50:04;28.90;43.10
32296;DHT22;18781;51.550;5.418;2022-07-23T13:52:30;28.90;42.80
32296;DHT22;18781;51.550;5.418;2022-07-23T13:54:57;29.00;43.30
32296;DHT22;18781;51.550;5.418;2022-07-23T13:57:22;29.00;43.00
32296;DHT22;18781;51.550;5.418;2022-07-23T13:59:48;29.00;43.20
32296;DHT22;18781;51.550;5.418;2022-07-23T14:02:16;29.00;43.50
32296;DHT22;18781;51.550;5.418;2022-07-23T14:04:42;29.10;43.80
32296;DHT22;18781;51.550;5.418;2022-07-23T14:07:08;29.20;44.10
32296;DHT22;18781;51.550;5.418;2022-07-23T14:09:33;29.30;44.30
32296;DHT22;18781;51.550;5.418;2022-07-23T14:11:59;29.40;44.10
32296;DHT22;18781;51.550;5.418;2022-07-23T14:14:25;29.50;44.20
32296;DHT22;18781;51.550;5.418;2022-07-23T14:16:51;29.50;43.90
32296;DHT22;18781;51.550;5.418;2022-07-23T14:19:16;29.60;43.10
32296;DHT22;18781;51.550;5.418;2022-07-23T14:21:42;29.70;43.00
32296;DHT22;18781;51.550;5.418;2022-07-23T14:24:08;29.70;43.50
32296;DHT22;18781;51.550;5.418;2022-07-23T14:26:34;29.80;43.40
32296;DHT22;18781;51.550;5.418;2022-07-23T14:28:59;29.80;42.70
32296;DHT22;18781;51.550;5.418;2022-07-23T14:31:26;29.90;42.60
32296;DHT22;18781;51.550;5.418;2022-07-23T14:33:51;30.00;42.10
32296;DHT22;18781;51.550;5.418;2022-07-23T14:36:17;30.00;41.90
32296;DHT22;18781;51.550;5.418;2022-07-23T14:38:42;30.10;42.00
32296;DHT22;18781;51.550;5.418;2022-07-23T14:41:08;30.10;40.70
32296;DHT22;18781;51.550;5.418;2022-07-23T14:43:35;30.10;40.30
32296;DHT22;18781;51.550;5.418;2022-07-23T14:46:00;30.10;40.50
32296;DHT22;18781;51.550;5.418;2022-07-23T14:48:26;30.10;39.90
32296;DHT22;18781;51.550;5.418;2022-07-23T14:50:52;30.00;41.10
32296;DHT22;18781;51.550;5.418;2022-07-23T14:53:18;30.00;40.00
32296;DHT22;18781;51.550;5.418;2022-07-23T14:55:43;29.90;40.20
32296;DHT22;18781;51.550;5.418;2022-07-23T14:58:09;29.80;41.10
32296;DHT22;18781;51.550;5.418;2022-07-23T15:00:34;29.80;41.50
32296;DHT22;18781;51.550;5.418;2022-07-23T15:03:00;29.80;40.50
32296;DHT22;18781;51.550;5.418;2022-07-23T15:05:26;29.80;40.60
32296;DHT22;18781;51.550;5.418;2022-07-23T15:07:51;29.80;39.90
32296;DHT22;18781;51.550;5.418;2022-07-23T15:10:17;29.80;41.00
32296;DHT22;18781;51.550;5.418;2022-07-23T15:12:43;29.80;42.20
32296;DHT22;18781;51.550;5.418;2022-07-23T15:15:09;29.80;40.70
32296;DHT22;18781;51.550;5.418;2022-07-23T15:17:34;29.80;40.70
32296;DHT22;18781;51.550;5.418;2022-07-23T15:20:00;29.80;40.80
32296;DHT22;18781;51.550;5.418;2022-07-23T15:22:26;29.80;40.00
32296;DHT22;18781;51.550;5.418;2022-07-23T15:24:51;29.80;40.90
32296;DHT22;18781;51.550;5.418;2022-07-23T15:27:17;29.80;41.70
32296;DHT22;18781;51.550;5.418;2022-07-23T15:29:43;29.80;40.80
32296;DHT22;18781;51.550;5.418;2022-07-23T15:32:09;29.90;40.60
32296;DHT22;18781;51.550;5.418;2022-07-23T15:34:36;29.90;41.00
32296;DHT22;18781;51.550;5.418;2022-07-23T15:37:02;30.00;40.60
32296;DHT22;18781;51.550;5.418;2022-07-23T15:39:27;30.00;41.20
32296;DHT22;18781;51.550;5.418;2022-07-23T15:41:53;30.10;40.90
32296;DHT22;18781;51.550;5.418;2022-07-23T15:44:19;30.10;40.40
32296;DHT22;18781;51.550;5.418;2022-07-23T15:46:45;30.10;40.50
32296;DHT22;18781;51.550;5.418;2022-07-23T15:49:10;30.10;40.40
32296;DHT22;18781;51.550;5.418;2022-07-23T15:51:38;30.10;40.40
32296;DHT22;18781;51.550;5.418;2022-07-23T15:54:04;30.10;40.70
32296;DHT22;18781;51.550;5.418;2022-07-23T15:56:30;30.10;40.70
32296;DHT22;18781;51.550;5.418;2022-07-23T15:58:55;30.10;40.00
32296;DHT22;18781;51.550;5.418;2022-07-23T16:01:21;30.10;40.40
32296;DHT22;18781;51.550;5.418;2022-07-23T16:03:46;30.10;40.30
32296;DHT22;18781;51.550;5.418;2022-07-23T16:06:12;30.10;40.00
32296;DHT22;18781;51.550;5.418;2022-07-23T16:08:38;30.10;39.90
32296;DHT22;18781;51.550;5.418;2022-07-23T16:11:03;30.10;40.10
32296;DHT22;18781;51.550;5.418;2022-07-23T16:13:30;30.10;40.20